sensor_id;sensor_type;location;lat;lon;timestamp;temperature;humidity
32446;DHT22;18899;50.748;7.102;2022-09-09T00:00:25;17.50;99.90
32446;DHT22;18899;50.748;7.102;2022-09-09T00:03:18;17.50;99.90
32446;DHT22;18899;50.748;7.102;2022-09-09T00:06:02;17.40;99.90
32446;DHT22;18899;50.748;7.102;2022-09-09T00:08:45;17.30;99.90
32446;DHT22;18899;50.748;7.102;2022-09-09T00:11:28;17.20;99.90
32446;DHT22;18899;50.748;7.102;2022-09-09T00:13:57;17.30;99.90
32446;DHT22;18899;50.748;7.102;2022-09-09T00:16:28;17.30;99.90
32446;DHT22;18899;50.748;7.102;2022-09-09T00:19:35;17.30;99.90
32446;DHT22;18899;50.748;7.102;2022-09-09T00:22:16;17.20;99.90
32446;DHT22;18899;50.748;7.102;2022-09-09T00:24:49;17.00;99.90
32446;DHT22;18899;50.748;7.102;2022-09-09T00:30:12;17.00;99.90
32446;DHT22;18899;50.748;7.102;2022-09-09T00:32:39;16.90;99.90
32446;DHT22;18899;50.748;7.102;2022-09-09T00:35:32;17.00;99.90
32446;DHT22;18899;50.748;7.102;2022-09-09T00:38:21;16.90;99.90
32446;DHT22;18899;50.748;7.102;2022-09-09T00:40:50;16.80;99.90
32446;DHT22;18899;50.748;7.102;2022-09-09T00:48:47;16.70;99.90
32446;DHT22;18899;50.748;7.102;2022-09-09T00:51:33;16.70;99.90
32446;DHT22;18899;50.748;7.102;2022-09-09T00:54:10;16.50;99.90
32446;DHT22;18899;50.748;7.102;2022-09-09T00:57:03;16.50;99.90
32446;DHT22;18899;50.748;7.102;2022-09-09T01:02:07;16.50;99.90
32446;DHT22;18899;50.748;7.102;2022-09-09T01:04:38;16.50;99.90
32446;DHT22;18899;50.748;7.102;2022-09-09T01:07:17;16.50;99.90
32446;DHT22;18899;50.748;7.102;2022-09-09T01:09:59;16.50;99.90
32446;DHT22;18899;50.748;7.102;2022-09-09T01:15:12;16.50;99.90
32446;DHT22;18899;50.748;7.102;2022-09-09T01:17:50;16.60;99.90
32446;DHT22;18899;50.748;7.102;2022-09-09T01:20:27;16.60;99.90
32446;DHT22;18899;50.748;7.102;2022-09-09T01:26:16;16.60;99.90
32446;DHT22;18899;50.748;7.102;2022-09-09T01:28:46;16.60;99.90
32446;DHT22;18899;50.748;7.102;2022-09-09T01:31:17;16.60;99.90
32446;DHT22;18899;50.748;7.102;2022-09-09T01:33:43;16.60;99.90
32446;DHT22;18899;50.748;7.102;2022-09-09T01:38:37;16.60;99.90
32446;DHT22;18899;50.748;7.102;2022-09-09T01:41:04;16.50;99.90
32446;DHT22;18899;50.748;7.102;2022-09-09T01:43:30;16.60;99.90
32446;DHT22;18899;50.748;7.102;2022-09-09T01:45:58;16.70;99.90
32446;DHT22;18899;50.748;7.102;2022-09-09T01:48:25;16.70;99.90
32446;DHT22;18899;50.748;7.102;2022-09-09T01:50:51;16.70;99.90
32446;DHT22;18899;50.748;7.102;2022-09-09T01:53:18;16.80;99.90
32446;DHT22;18899;50.748;7.102;2022-09-09T02:01:23;16.80;99.90
32446;DHT22;18899;50.748;7.102;2022-09-09T02:03:56;16.90;99.90
32446;DHT22;18899;50.748;7.102;2022-09-09T02:06:27;16.80;99.90
32446;DHT22;18899;50.748;7.102;2022-09-09T02:08:57;16.80;99.90
32446;DHT22;18899;50.748;7.102;2022-09-09T02:11:26;16.80;99.90
32446;DHT22;18899;50.748;7.102;2022-09-09T02:14:12;16.80;99.90
32446;DHT22;18899;50.748;7.102;2022-09-09T02:16:52;16.90;99.90
32446;DHT22;18899;50.748;7.102;2022-09-09T02:19:23;16.90;99.90
32446;DHT22;18899;50.748;7.102;2022-09-09T02:21:53;17.00;99.90
32446;DHT22;18899;50.748;7.102;2022-09-09T02:24:20;17.00;99.90
32446;DHT22;18899;50.748;7.102;2022-09-09T02:26:49;17.00;99.90
32446;DHT22;18899;50.748;7.102;2022-09-09T02:29:24;17.10;99.90
32446;DHT22;18899;50.748;7.102;2022-09-09T02:31:51;17.10;99.90
32446;DHT22;18899;50.748;7.102;2022-09-09T02:34:22;17.20;99.90
32446;DHT22;18899;50.748;7.102;2022-09-09T02:36:50;17.20;99.90
32446;DHT22;18899;50.748;7.102;2022-09-09T02:39:16;17.20;99.90
32446;DHT22;18899;50.748;7.102;2022-09-09T02:41:42;17.30;99.90
32446;DHT22;18899;50.748;7.102;2022-09-09T02:44:13;17.40;99.90
32446;DHT22;18899;50.748;7.102;2022-09-09T02:46:49;17.30;99.90
32446;DHT22;18899;50.748;7.102;2022-09-09T02:52:11;17.40;99.90
32446;DHT22;18899;50.748;7.102;2022-09-09T02:54:41;17.50;99.90
32446;DHT22;18899;50.748;7.102;2022-09-09T02:59:36;17.50;99.90
32446;DHT22;18899;50.748;7.102;2022-09-09T03:02:02;17.50;99.90
32446;DHT22;18899;50.748;7.102;2022-09-09T03:04:29;17.40;99.90
32446;DHT22;18899;50.748;7.102;2022-09-09T03:06:55;17.40;99.90
32446;DHT22;18899;50.748;7.102;2022-09-09T03:09:21;17.50;99.90
32446;DHT22;18899;50.748;7.102;2022-09-09T03:11:46;17.50;99.90
32446;DHT22;18899;50.748;7.102;2022-09-09T03:14:12;17.50;99.90
32446;DHT22;18899;50.748;7.102;2022-09-09T03:16:38;17.50;99.90
32446;DHT22;18899;50.748;7.102;2022-09-09T03:19:03;17.40;99.90
32446;DHT22;18899;50.748;7.102;2022-09-09T03:21:29;17.30;99.90
32446;DHT22;18899;50.748;7.102;2022-09-09T03:23:54;17.40;99.90
32446;DHT22;18899;50.748;7.102;2022-09-09T03:26:21;17.50;99.90
32446;DHT22;18899;50.748;7.102;2022-09-09T03:28:46;17.40;99.90
32446;DHT22;18899;50.748;7.102;2022-09-09T03:31:12;17.50;99.90
32446;DHT22;18899;50.748;7.102;2022-09-09T03:33:38;17.50;99.90
32446;DHT22;18899;50.748;7.102;2022-09-09T03:36:05;17.40;99.90
32446;DHT22;18899;50.748;7.102;2022-09-09T03:38:30;17.40;99.90
32446;DHT22;18899;50.748;7.102;2022-09-09T03:40:57;17.30;99.90
32446;DHT22;18899;50.748;7.102;2022-09-09T03:43:24;17.40;99.90
32446;DHT22;18899;50.748;7.102;2022-09-09T03:45:50;17.40;99.90
32446;DHT22;18899;50.748;7.102;2022-09-09T03:48:16;17.30;99.90
32446;DHT22;18899;50.748;7.102;2022-09-09T03:50:47;17.30;99.90
32446;DHT22;18899;50.748;7.102;2022-09-09T03:53:14;17.30;99.90
32446;DHT22;18899;50.748;7.102;2022-09-09T03:55:44;17.30;99.90
32446;DHT22;18899;50.748;7.102;2022-09-09T03:58:11;17.50;99.90
32446;DHT22;18899;50.748;7.102;2022-09-09T04:00:37;17.40;99.90
32446;DHT22;18899;50.748;7.102;2022-09-09T04:03:09;17.50;99.90
32446;DHT22;18899;50.748;7.102;2022-09-09T04:05:35;17.40;99.90
32446;DHT22;18899;50.748;7.102;2022-09-09T04:08:05;17.40;99.90
32446;DHT22;18899;50.748;7.102;2022-09-09T04:10:31;17.40;99.90
32446;DHT22;18899;50.748;7.102;2022-09-09T04:12:57;17.40;99.90
32446;DHT22;18899;50.748;7.102;2022-09-09T04:15:22;17.40;99.90
32446;DHT22;18899;50.748;7.102;2022-09-09T04:17:48;17.40;99.90
32446;DHT22;18899;50.748;7.102;2022-09-09T04:20:13;17.50;99.90
32446;DHT22;18899;50.748;7.102;2022-09-09T04:22:39;17.50;99.90
32446;DHT22;18899;50.748;7.102;2022-09-09T04:25:05;17.50;99.90
32446;DHT22;18899;50.748;7.102;2022-09-09T04:27:31;17.50;99.90
32446;DHT22;18899;50.748;7.102;2022-09-09T04:29:57;17.50;99.90
32446;DHT22;18899;50.748;7.102;2022-09-09T04:32:23;17.50;99.90
32446;DHT22;18899;50.748;7.102;2022-09-09T04:34:52;17.60;99.90
32446;DHT22;18899;50.748;7.102;2022-09-09T04:37:17;17.50;99.90
32446;DHT22;18899;50.748;7.102;2022-09-09T04:39:42;17.50;99.90
32446;DHT22;18899;50.748;7.102;2022-09-09T04:42:08;17.50;99.90
32446;DHT22;18899;50.748;7.102;2022-09-09T04:44:34;17.60;99.90
32446;DHT22;18899;50.748;7.102;2022-09-09T04:46:59;17.50;99.90
32446;DHT22;18899;50.748;7.102;2022-09-09T04:49:25;17.50;99.90
32446;DHT22;18899;50.748;7.102;2022-09-09T04:51:51;17.40;99.90
32446;DHT22;18899;50.748;7.102;2022-09-09T04:54:17;17.40;99.90
32446;DHT22;18899;50.748;7.102;2022-09-09T04:56:42;17.30;99.90
32446;DHT22;18899;50.748;7.102;2022-09-09T04:59:08;17.30;99.90
32446;DHT22;18899;50.748;7.102;2022-09-09T05:01:35;17.20;99.90
32446;DHT22;18899;50.748;7.102;2022-09-09T05:04:01;17.20;99.90
32446;DHT22;18899;50.748;7.102;2022-09-09T05:06:28;17.20;99.90
32446;DHT22;18899;50.748;7.102;2022-09-09T05:08:55;17.30;99.90
32446;DHT22;18899;50.748;7.102;2022-09-09T05:11:26;17.40;99.90
32446;DHT22;18899;50.748;7.102;2022-09-09T05:13:52;17.40;99.90
32446;DHT22;18899;50.748;7.102;2022-09-09T05:16:19;17.30;99.90
32446;DHT22;18899;50.748;7.102;2022-09-09T05:18:45;17.30;99.90
32446;DHT22;18899;50.748;7.102;2022-09-09T05:21:12;17.40;99.90
32446;DHT22;18899;50.748;7.102;2022-09-09T05:23:38;17.50;99.90
32446;DHT22;18899;50.748;7.102;2022-09-09T05:26:04;17.50;99.90
32446;DHT22;18899;50.748;7.102;2022-09-09T05:28:31;17.50;99.90
32446;DHT22;18899;50.748;7.102;2022-09-09T05:31:02;17.40;99.90
32446;DHT22;18899;50.748;7.102;2022-09-09T05:33:30;17.50;99.90
32446;DHT22;18899;50.748;7.102;2022-09-09T05:35:58;17.50;99.90
32446;DHT22;18899;50.748;7.102;2022-09-09T05:38:24;17.50;99.90
32446;DHT22;18899;50.748;7.102;2022-09-09T05:40:53;17.50;99.90
32446;DHT22;18899;50.748;7.102;2022-09-09T05:43:19;17.50;99.90
32446;DHT22;18899;50.748;7.102;2022-09-09T05:45:46;17.50;99.90
32446;DHT22;18899;50.748;7.102;2022-09-09T05:48:13;17.60;99.90
32446;DHT22;18899;50.748;7.102;2022-09-09T05:50:40;17.60;99.90
32446;DHT22;18899;50.748;7.102;2022-09-09T05:53:09;17.70;99.90
32446;DHT22;18899;50.748;7.102;2022-09-09T05:55:35;17.70;99.90
32446;DHT22;18899;50.748;7.102;2022-09-09T05:58:01;17.80;99.90
32446;DHT22;18899;50.748;7.102;2022-09-09T06:00:27;17.90;99.90
32446;DHT22;18899;50.748;7.102;2022-09-09T06:02:52;17.90;99.90
32446;DHT22;18899;50.748;7.102;2022-09-09T06:05:19;17.90;99.90
32446;DHT22;18899;50.748;7.102;2022-09-09T06:07:44;17.90;99.90
32446;DHT22;18899;50.748;7.102;2022-09-09T06:10:11;17.90;99.90
32446;DHT22;18899;50.748;7.102;2022-09-09T06:12:39;18.00;99.90
32446;DHT22;18899;50.748;7.102;2022-09-09T06:15:05;18.10;99.90
32446;DHT22;18899;50.748;7.102;2022-09-09T06:17:30;18.30;99.90
32446;DHT22;18899;50.748;7.102;2022-09-09T06:19:56;18.40;99.90
32446;DHT22;18899;50.748;7.102;2022-09-09T06:22:22;18.60;99.90
32446;DHT22;18899;50.748;7.102;2022-09-09T06:24:47;18.80;99.90
32446;DHT22;18899;50.748;7.102;2022-09-09T06:27:13;18.80;99.90
32446;DHT22;18899;50.748;7.102;2022-09-09T06:29:39;19.00;99.90
32446;DHT22;18899;50.748;7.102;2022-09-09T06:32:04;19.20;99.90
32446;DHT22;18899;50.748;7.102;2022-09-09T06:34:30;19.30;99.90
32446;DHT22;18899;50.748;7.102;2022-09-09T06:36:56;19.40;99.90
32446;DHT22;18899;50.748;7.102;2022-09-09T06:39:23;19.60;99.90
32446;DHT22;18899;50.748;7.102;2022-09-09T06:41:48;20.30;99.90
32446;DHT22;18899;50.748;7.102;2022-09-09T06:44:15;21.00;99.90
32446;DHT22;18899;50.748;7.102;2022-09-09T06:46:41;21.40;99.90
32446;DHT22;18899;50.748;7.102;2022-09-09T06:49:08;21.40;99.90
32446;DHT22;18899;50.748;7.102;2022-09-09T06:51:35;21.30;99.90
32446;DHT22;18899;50.748;7.102;2022-09-09T06:54:02;21.40;99.90
32446;DHT22;18899;50.748;7.102;2022-09-09T06:56:33;21.20;99.90
32446;DHT22;18899;50.748;7.102;2022-09-09T06:59:05;21.00;99.90
32446;DHT22;18899;50.748;7.102;2022-09-09T07:01:35;21.10;99.90
32446;DHT22;18899;50.748;7.102;2022-09-09T07:04:02;21.60;99.90
32446;DHT22;18899;50.748;7.102;2022-09-09T07:06:31;22.60;99.90
32446;DHT22;18899;50.748;7.102;2022-09-09T07:08:59;23.70;99.90
32446;DHT22;18899;50.748;7.102;2022-09-09T07:11:28;25.10;98.80
32446;DHT22;18899;50.748;7.102;2022-09-09T07:13:54;26.60;90.90
32446;DHT22;18899;50.748;7.102;2022-09-09T07:16:22;28.00;80.10
32446;DHT22;18899;50.748;7.102;2022-09-09T07:18:51;28.80;73.20
32446;DHT22;18899;50.748;7.102;2022-09-09T07:21:18;29.70;68.90
32446;DHT22;18899;50.748;7.102;2022-09-09T07:23:44;30.70;64.00
32446;DHT22;18899;50.748;7.102;2022-09-09T07:26:16;31.50;61.70
32446;DHT22;18899;50.748;7.102;2022-09-09T07:28:42;32.10;57.60
32446;DHT22;18899;50.748;7.102;2022-09-09T07:31:20;32.70;54.50
32446;DHT22;18899;50.748;7.102;2022-09-09T07:33:47;33.60;51.60
32446;DHT22;18899;50.748;7.102;2022-09-09T07:36:17;34.20;48.90
32446;DHT22;18899;50.748;7.102;2022-09-09T07:38:45;33.40;49.40
32446;DHT22;18899;50.748;7.102;2022-09-09T07:41:17;32.20;50.70
32446;DHT22;18899;50.748;7.102;2022-09-09T07:43:44;30.10;53.90
32446;DHT22;18899;50.748;7.102;2022-09-09T07:46:17;28.60;57.40
32446;DHT22;18899;50.748;7.102;2022-09-09T07:48:46;27.60;59.60
32446;DHT22;18899;50.748;7.102;2022-09-09T07:51:14;26.80;61.50
32446;DHT22;18899;50.748;7.102;2022-09-09T07:53:43;26.00;63.90
32446;DHT22;18899;50.748;7.102;2022-09-09T07:56:11;25.20;66.40
32446;DHT22;18899;50.748;7.102;2022-09-09T07:58:38;24.60;70.10
32446;DHT22;18899;50.748;7.102;2022-09-09T08:01:12;24.20;70.80
32446;DHT22;18899;50.748;7.102;2022-09-09T08:03:38;23.60;73.40
32446;DHT22;18899;50.748;7.102;2022-09-09T08:06:05;23.10;75.20
32446;DHT22;18899;50.748;7.102;2022-09-09T08:08:33;22.70;76.00
32446;DHT22;18899;50.748;7.102;2022-09-09T08:11:04;22.50;77.80
32446;DHT22;18899;50.748;7.102;2022-09-09T08:13:30;22.20;79.90
32446;DHT22;18899;50.748;7.102;2022-09-09T08:18:32;21.70;82.40
32446;DHT22;18899;50.748;7.102;2022-09-09T08:21:11;21.70;83.00
32446;DHT22;18899;50.748;7.102;2022-09-09T08:23:41;21.80;82.60
32446;DHT22;18899;50.748;7.102;2022-09-09T08:26:13;21.90;82.80
32446;DHT22;18899;50.748;7.102;2022-09-09T08:28:39;22.00;82.10
32446;DHT22;18899;50.748;7.102;2022-09-09T08:31:11;22.20;82.00
32446;DHT22;18899;50.748;7.102;2022-09-09T08:33:37;22.20;81.10
32446;DHT22;18899;50.748;7.102;2022-09-09T08:36:04;22.50;80.40
32446;DHT22;18899;50.748;7.102;2022-09-09T08:38:30;22.90;79.30
32446;DHT22;18899;50.748;7.102;2022-09-09T08:43:34;23.30;76.20
32446;DHT22;18899;50.748;7.102;2022-09-09T08:46:14;23.40;76.70
32446;DHT22;18899;50.748;7.102;2022-09-09T08:49:14;23.70;75.00
32446;DHT22;18899;50.748;7.102;2022-09-09T08:51:41;25.20;73.30
32446;DHT22;18899;50.748;7.102;2022-09-09T08:54:09;26.60;65.90
32446;DHT22;18899;50.748;7.102;2022-09-09T08:56:36;26.80;64.60
32446;DHT22;18899;50.748;7.102;2022-09-09T08:59:02;26.50;66.60
32446;DHT22;18899;50.748;7.102;2022-09-09T09:04:45;25.10;68.00
32446;DHT22;18899;50.748;7.102;2022-09-09T09:12:44;24.70;68.90
32446;DHT22;18899;50.748;7.102;2022-09-09T09:15:18;25.30;66.90
32446;DHT22;18899;50.748;7.102;2022-09-09T09:17:45;25.80;66.30
32446;DHT22;18899;50.748;7.102;2022-09-09T09:20:20;26.10;64.50
32446;DHT22;18899;50.748;7.102;2022-09-09T09:22:50;26.00;63.40
32446;DHT22;18899;50.748;7.102;2022-09-09T09:25:22;25.70;64.40
32446;DHT22;18899;50.748;7.102;2022-09-09T09:27:58;25.40;65.50
32446;DHT22;18899;50.748;7.102;2022-09-09T09:30:31;24.90;66.60
32446;DHT22;18899;50.748;7.102;2022-09-09T09:33:11;24.90;66.50
32446;DHT22;18899;50.748;7.102;2022-09-09T09:35:40;25.40;64.80
32446;DHT22;18899;50.748;7.102;2022-09-09T09:38:26;25.80;63.90
32446;DHT22;18899;50.748;7.102;2022-09-09T09:40:55;25.40;63.00
32446;DHT22;18899;50.748;7.102;2022-09-09T09:43:27;24.90;64.60
32446;DHT22;18899;50.748;7.102;2022-09-09T09:45:53;24.80;65.50
32446;DHT22;18899;50.748;7.102;2022-09-09T09:48:19;24.70;67.70
32446;DHT22;18899;50.748;7.102;2022-09-09T09:51:07;24.50;66.30
32446;DHT22;18899;50.748;7.102;2022-09-09T09:53:36;24.30;66.40
32446;DHT22;18899;50.748;7.102;2022-09-09T10:01:27;24.20;69.00
32446;DHT22;18899;50.748;7.102;2022-09-09T10:04:01;25.00;66.60
32446;DHT22;18899;50.748;7.102;2022-09-09T10:06:35;25.80;64.80
32446;DHT22;18899;50.748;7.102;2022-09-09T10:09:03;26.60;61.10
32446;DHT22;18899;50.748;7.102;2022-09-09T10:14:19;27.40;59.00
32446;DHT22;18899;50.748;7.102;2022-09-09T10:17:00;26.90;59.10
32446;DHT22;18899;50.748;7.102;2022-09-09T10:19:35;26.30;61.00
32446;DHT22;18899;50.748;7.102;2022-09-09T10:22:07;25.90;62.20
32446;DHT22;18899;50.748;7.102;2022-09-09T10:25:10;25.70;63.30
32446;DHT22;18899;50.748;7.102;2022-09-09T10:30:18;25.10;63.70
32446;DHT22;18899;50.748;7.102;2022-09-09T10:35:34;24.40;67.50
32446;DHT22;18899;50.748;7.102;2022-09-09T10:38:15;24.10;67.10
32446;DHT22;18899;50.748;7.102;2022-09-09T10:49:52;22.90;71.30
32446;DHT22;18899;50.748;7.102;2022-09-09T10:57:52;23.00;71.80
32446;DHT22;18899;50.748;7.102;2022-09-09T11:00:21;23.20;72.40
32446;DHT22;18899;50.748;7.102;2022-09-09T11:02:56;23.30;72.00
32446;DHT22;18899;50.748;7.102;2022-09-09T11:05:46;23.50;71.90
32446;DHT22;18899;50.748;7.102;2022-09-09T11:08:19;23.50;72.90
32446;DHT22;18899;50.748;7.102;2022-09-09T11:11:02;23.80;72.70
32446;DHT22;18899;50.748;7.102;2022-09-09T11:19:17;24.40;69.80
32446;DHT22;18899;50.748;7.102;2022-09-09T11:21:47;24.30;68.40
32446;DHT22;18899;50.748;7.102;2022-09-09T11:24:35;24.30;69.90
32446;DHT22;18899;50.748;7.102;2022-09-09T11:27:12;24.50;68.20
32446;DHT22;18899;50.748;7.102;2022-09-09T11:29:52;24.80;67.30
32446;DHT22;18899;50.748;7.102;2022-09-09T11:38:46;25.00;67.30
32446;DHT22;18899;50.748;7.102;2022-09-09T11:41:14;25.00;65.60
32446;DHT22;18899;50.748;7.102;2022-09-09T11:43:43;25.00;66.30
32446;DHT22;18899;50.748;7.102;2022-09-09T11:46:10;24.90;66.20
32446;DHT22;18899;50.748;7.102;2022-09-09T11:48:37;24.80;66.70
32446;DHT22;18899;50.748;7.102;2022-09-09T11:51:12;24.80;67.20
32446;DHT22;18899;50.748;7.102;2022-09-09T11:56:29;25.20;66.70
32446;DHT22;18899;50.748;7.102;2022-09-09T11:59:19;25.20;66.30
32446;DHT22;18899;50.748;7.102;2022-09-09T12:01:46;25.20;65.80
32446;DHT22;18899;50.748;7.102;2022-09-09T12:04:46;25.20;64.10
32446;DHT22;18899;50.748;7.102;2022-09-09T12:12:47;24.90;64.70
32446;DHT22;18899;50.748;7.102;2022-09-09T12:15:17;24.70;66.40
32446;DHT22;18899;50.748;7.102;2022-09-09T12:17:48;24.70;64.70
32446;DHT22;18899;50.748;7.102;2022-09-09T12:20:23;24.70;64.30
32446;DHT22;18899;50.748;7.102;2022-09-09T12:31:10;24.40;64.80
32446;DHT22;18899;50.748;7.102;2022-09-09T12:33:44;24.30;65.50
32446;DHT22;18899;50.748;7.102;2022-09-09T12:36:16;24.30;66.10
32446;DHT22;18899;50.748;7.102;2022-09-09T12:38:45;24.20;66.40
32446;DHT22;18899;50.748;7.102;2022-09-09T12:41:22;24.20;66.10
32446;DHT22;18899;50.748;7.102;2022-09-09T12:43:49;24.00;67.60
32446;DHT22;18899;50.748;7.102;2022-09-09T12:46:29;23.90;67.10
32446;DHT22;18899;50.748;7.102;2022-09-09T12:48:57;23.90;66.70
32446;DHT22;18899;50.748;7.102;2022-09-09T12:51:29;23.80;67.40
32446;DHT22;18899;50.748;7.102;2022-09-09T12:53:56;23.90;66.90
32446;DHT22;18899;50.748;7.102;2022-09-09T12:56:24;24.00;66.60
32446;DHT22;18899;50.748;7.102;2022-09-09T12:58:52;24.00;66.40
32446;DHT22;18899;50.748;7.102;2022-09-09T13:01:39;23.80;66.50
32446;DHT22;18899;50.748;7.102;2022-09-09T13:04:19;23.70;67.60
32446;DHT22;18899;50.748;7.102;2022-09-09T13:06:45;23.30;69.30
32446;DHT22;18899;50.748;7.102;2022-09-09T13:09:11;23.00;70.30
32446;DHT22;18899;50.748;7.102;2022-09-09T13:11:39;23.00;70.90
32446;DHT22;18899;50.748;7.102;2022-09-09T13:14:18;22.80;71.30
32446;DHT22;18899;50.748;7.102;2022-09-09T13:16:55;22.90;72.20
32446;DHT22;18899;50.748;7.102;2022-09-09T13:19:21;23.10;70.30
32446;DHT22;18899;50.748;7.102;2022-09-09T13:21:47;23.40;69.60
32446;DHT22;18899;50.748;7.102;2022-09-09T13:24:30;23.40;69.50
32446;DHT22;18899;50.748;7.102;2022-09-09T13:27:02;23.40;69.90
32446;DHT22;18899;50.748;7.102;2022-09-09T13:29:28;23.20;71.70
32446;DHT22;18899;50.748;7.102;2022-09-09T13:32:04;23.10;74.00
32446;DHT22;18899;50.748;7.102;2022-09-09T13:34:35;22.80;76.10
32446;DHT22;18899;50.748;7.102;2022-09-09T13:39:52;22.70;77.90
32446;DHT22;18899;50.748;7.102;2022-09-09T13:42:28;22.90;78.40
32446;DHT22;18899;50.748;7.102;2022-09-09T13:44:56;23.40;75.50
32446;DHT22;18899;50.748;7.102;2022-09-09T13:47:34;23.80;74.20
32446;DHT22;18899;50.748;7.102;2022-09-09T13:50:20;24.20;72.60
32446;DHT22;18899;50.748;7.102;2022-09-09T13:52:58;24.40;70.40
32446;DHT22;18899;50.748;7.102;2022-09-09T13:55:26;24.30;70.50
32446;DHT22;18899;50.748;7.102;2022-09-09T13:58:00;24.20;70.90
32446;DHT22;18899;50.748;7.102;2022-09-09T14:00:29;24.00;71.10
32446;DHT22;18899;50.748;7.102;2022-09-09T14:02:55;23.90;72.60
32446;DHT22;18899;50.748;7.102;2022-09-09T14:05:21;23.90;73.10
32446;DHT22;18899;50.748;7.102;2022-09-09T14:07:48;23.90;73.00
32446;DHT22;18899;50.748;7.102;2022-09-09T14:10:14;24.20;72.60
32446;DHT22;18899;50.748;7.102;2022-09-09T14:12:40;24.30;72.20
32446;DHT22;18899;50.748;7.102;2022-09-09T14:15:07;24.30;71.40
32446;DHT22;18899;50.748;7.102;2022-09-09T14:17:33;24.10;73.00
32446;DHT22;18899;50.748;7.102;2022-09-09T14:20:02;24.00;73.30
32446;DHT22;18899;50.748;7.102;2022-09-09T14:22:28;24.00;73.00
32446;DHT22;18899;50.748;7.102;2022-09-09T14:24:54;23.80;73.90
32446;DHT22;18899;50.748;7.102;2022-09-09T14:27:19;23.80;76.20
32446;DHT22;18899;50.748;7.102;2022-09-09T14:29:45;23.90;74.70
32446;DHT22;18899;50.748;7.102;2022-09-09T14:32:11;24.10;72.80
32446;DHT22;18899;50.748;7.102;2022-09-09T14:34:37;24.00;72.70
32446;DHT22;18899;50.748;7.102;2022-09-09T14:37:03;24.00;72.10
32446;DHT22;18899;50.748;7.102;2022-09-09T14:39:29;23.90;72.90
32446;DHT22;18899;50.748;7.102;2022-09-09T14:41:55;23.90;73.80
32446;DHT22;18899;50.748;7.102;2022-09-09T14:44:20;23.80;73.40
32446;DHT22;18899;50.748;7.102;2022-09-09T14:46:47;23.70;74.70
32446;DHT22;18899;50.748;7.102;2022-09-09T14:49:12;23.70;73.70
32446;DHT22;18899;50.748;7.102;2022-09-09T14:51:38;23.80;73.80
32446;DHT22;18899;50.748;7.102;2022-09-09T14:54:04;23.70;74.20
32446;DHT22;18899;50.748;7.102;2022-09-09T14:56:32;23.80;74.10
32446;DHT22;18899;50.748;7.102;2022-09-09T14:59:00;23.70;74.50
32446;DHT22;18899;50.748;7.102;2022-09-09T15:01:30;23.70;75.60
32446;DHT22;18899;50.748;7.102;2022-09-09T15:04:00;23.80;75.00
32446;DHT22;18899;50.748;7.102;2022-09-09T15:06:28;23.80;74.30
32446;DHT22;18899;50.748;7.102;2022-09-09T15:08:55;23.70;74.20
32446;DHT22;18899;50.748;7.102;2022-09-09T15:11:27;23.60;75.90
32446;DHT22;18899;50.748;7.102;2022-09-09T15:13:53;23.40;76.10
32446;DHT22;18899;50.748;7.102;2022-09-09T15:16:20;23.20;76.90
32446;DHT22;18899;50.748;7.102;2022-09-09T15:18:50;23.00;78.20
32446;DHT22;18899;50.748;7.102;2022-09-09T15:21:18;23.00;78.20
32446;DHT22;18899;50.748;7.102;2022-09-09T15:23:47;23.00;79.30
32446;DHT22;18899;50.748;7.102;2022-09-09T15:26:13;23.00;78.50
32446;DHT22;18899;50.748;7.102;2022-09-09T15:28:43;22.80;79.70
32446;DHT22;18899;50.748;7.102;2022-09-09T15:34:07;22.70;82.20
32446;DHT22;18899;50.748;7.102;2022-09-09T15:36:40;22.60;82.10
32446;DHT22;18899;50.748;7.102;2022-09-09T15:39:08;22.50;82.80
32446;DHT22;18899;50.748;7.102;2022-09-09T15:41:35;22.30;82.80
32446;DHT22;18899;50.748;7.102;2022-09-09T15:44:02;22.20;82.30
32446;DHT22;18899;50.748;7.102;2022-09-09T15:46:33;22.00;83.50
32446;DHT22;18899;50.748;7.102;2022-09-09T15:49:17;21.90;85.80
32446;DHT22;18899;50.748;7.102;2022-09-09T15:51:52;21.70;88.80
32446;DHT22;18899;50.748;7.102;2022-09-09T15:54:18;21.50;90.80
32446;DHT22;18899;50.748;7.102;2022-09-09T15:56:47;21.40;91.20
32446;DHT22;18899;50.748;7.102;2022-09-09T15:59:15;21.50;91.40
32446;DHT22;18899;50.748;7.102;2022-09-09T16:01:41;21.30;92.20
32446;DHT22;18899;50.748;7.102;2022-09-09T16:04:07;21.20;93.40
32446;DHT22;18899;50.748;7.102;2022-09-09T16:06:33;21.10;94.10
32446;DHT22;18899;50.748;7.102;2022-09-09T16:08:59;21.10;95.70
32446;DHT22;18899;50.748;7.102;2022-09-09T16:11:30;21.10;98.50
32446;DHT22;18899;50.748;7.102;2022-09-09T16:13:56;21.00;99.90
32446;DHT22;18899;50.748;7.102;2022-09-09T16:16:24;20.90;99.90
32446;DHT22;18899;50.748;7.102;2022-09-09T16:18:56;20.90;99.90
32446;DHT22;18899;50.748;7.102;2022-09-09T16:21:25;20.90;99.90
32446;DHT22;18899;50.748;7.102;2022-09-09T16:23:52;20.80;99.90
32446;DHT22;18899;50.748;7.102;2022-09-09T16:26:22;20.60;99.90
32446;DHT22;18899;50.748;7.102;2022-09-09T16:28:48;20.40;99.90
32446;DHT22;18899;50.748;7.102;2022-09-09T16:31:19;20.30;99.90
32446;DHT22;18899;50.748;7.102;2022-09-09T16:33:46;20.40;99.90
32446;DHT22;18899;50.748;7.102;2022-09-09T16:36:15;20.30;99.90
32446;DHT22;18899;50.748;7.102;2022-09-09T16:38:41;20.20;99.90
32446;DHT22;18899;50.748;7.102;2022-09-09T16:41:09;20.20;99.90
32446;DHT22;18899;50.748;7.102;2022-09-09T16:43:37;20.40;99.90
32446;DHT22;18899;50.748;7.102;2022-09-09T16:46:09;20.40;99.90
32446;DHT22;18899;50.748;7.102;2022-09-09T16:48:36;20.40;99.90
32446;DHT22;18899;50.748;7.102;2022-09-09T16:51:07;20.20;99.90
32446;DHT22;18899;50.748;7.102;2022-09-09T16:53:33;19.80;99.90
32446;DHT22;18899;50.748;7.102;2022-09-09T16:56:06;19.80;99.90
32446;DHT22;18899;50.748;7.102;2022-09-09T16:58:32;19.50;99.90
32446;DHT22;18899;50.748;7.102;2022-09-09T17:00:59;19.20;99.90
32446;DHT22;18899;50.748;7.102;2022-09-09T17:03:25;19.00;99.90
32446;DHT22;18899;50.748;7.102;2022-09-09T17:05:50;18.90;99.90
32446;DHT22;18899;50.748;7.102;2022-09-09T17:08:16;18.90;99.90
32446;DHT22;18899;50.748;7.102;2022-09-09T17:10:42;18.80;99.90
32446;DHT22;18899;50.748;7.102;2022-09-09T17:13:07;18.60;99.90
32446;DHT22;18899;50.748;7.102;2022-09-09T17:15:33;18.70;99.90
32446;DHT22;18899;50.748;7.102;2022-09-09T17:18:03;18.60;99.90
32446;DHT22;18899;50.748;7.102;2022-09-09T17:20:29;18.40;99.90
32446;DHT22;18899;50.748;7.102;2022-09-09T17:22:55;18.30;99.90
32446;DHT22;18899;50.748;7.102;2022-09-09T17:25:20;18.30;99.90
32446;DHT22;18899;50.748;7.102;2022-09-09T17:27:47;18.30;99.90
32446;DHT22;18899;50.748;7.102;2022-09-09T17:30:13;18.30;99.90
32446;DHT22;18899;50.748;7.102;2022-09-09T17:32:38;18.30;99.90